Squeak Carpenter — WDA2979 — position and weather

sailwx.info

Track history (hours):
 
Tides and Currents Weather Stations Pressure Air Temp Water Temp Dewpoint Dewpoint Depression Visibility Wind Speed Wind Dir Waves Ship Positions

Squeak Carpenter

Owner: Blessey Enterprises, Inc., HARAHAN, LA. More information available from US FCC via Universal Licensing System and Coast Guard Vessel Documentation Center.

Last reported at 2017-Dec-04 10:30 UTC. Time now 2017-Dec-13 05:27 UTC.
Position N 29°45' W 095°06'.
Warning: this ship's position is 8 days out of date.

Length 15 m.

Type: Towing. MMSI: 366793340.

Date/timePositionNaut miles runAvg speedWind from/ knotsBaromVisibWave heightAir tempDewpointWater temp
2017-Dec-04 10:30N 29°45' W 095°06'1 0.8
2017-Dec-04 09:46N 29°46' W 095°06'0 0.1
2017-Dec-04 09:29N 29°46' W 095°06'2 0.5
2017-Dec-04 04:52N 29°47' W 095°05'1 1.5
2017-Dec-04 04:29N 29°47' W 095°04'2 0.6
2017-Dec-04 01:53N 29°46' W 095°06'1 2.3
2017-Dec-04 01:28N 29°45' W 095°06'1 0.9
2017-Dec-04 00:49N 29°45' W 095°06'0 0.0
2017-Dec-04 00:14N 29°45' W 095°06'0 0.0
2017-Dec-03 23:35N 29°45' W 095°06'0 0.0
2017-Dec-03 19:25N 29°45' W 095°06'0 0.0
2017-Dec-03 17:52N 29°45' W 095°06'0 0.0
2017-Dec-03 15:56N 29°45' W 095°06'0 0.0
2017-Dec-03 06:34N 29°45' W 095°06'0 0.0
2017-Dec-03 06:30N 29°45' W 095°06'0 0.0
2017-Dec-03 05:56N 29°45' W 095°06'0 0.0
2017-Dec-03 05:30N 29°45' W 095°06'0 0.0
2017-Dec-03 04:59N 29°45' W 095°06'0 0.0
2017-Dec-03 04:30N 29°45' W 095°06'0 0.0
2017-Dec-03 04:00N 29°45' W 095°06'0 0.0
2017-Dec-03 03:23N 29°45' W 095°06'1 0.2
2017-Dec-02 23:52N 29°45' W 095°06'2 4.8
2017-Dec-02 23:30N 29°45' W 095°04'3 5.6
2017-Dec-02 23:00N 29°43' W 095°01'3 5.7
2017-Dec-02 22:31N 29°41' W 094°59'3 6.8
2017-Dec-02 22:01N 29°38' W 094°58'3 6.8
2017-Dec-02 21:31N 29°35' W 094°56'3 6.9
2017-Dec-02 21:01N 29°32' W 094°54'45 1.6
2017-Dec-01 17:19N 28°55' W 095°22'1 0.1
2017-Dec-01 01:57N 28°54' W 095°23'0 0.0
2017-Dec-01 01:28N 28°54' W 095°23'0 0.0
2017-Dec-01 00:17N 28°54' W 095°23'0 0.0
2017-Nov-30 23:59N 28°54' W 095°23'  
2017-Nov-28 03:59N 29°30' W 094°52'3 6.2
2017-Nov-28 03:29N 29°32' W 094°54'3 6.4
2017-Nov-28 03:00N 29°35' W 094°56'3 6.6
2017-Nov-28 02:30N 29°38' W 094°58'3 5.7
2017-Nov-28 02:00N 29°40' W 094°59'4 6.2
2017-Nov-28 01:22N 29°44' W 095°01'5 0.4
2017-Nov-27 13:57N 29°47' W 095°05'0 0.0
2017-Nov-27 13:27N 29°47' W 095°05'0 0.0
2017-Nov-27 12:04N 29°47' W 095°05'0 0.4
2017-Nov-27 11:56N 29°47' W 095°05'0 0.0
2017-Nov-27 11:19N 29°47' W 095°05'0 0.0
2017-Nov-27 10:20N 29°47' W 095°05'0 0.0
2017-Nov-27 10:00N 29°47' W 095°05'0 0.0
2017-Nov-27 08:47N 29°47' W 095°05'0 0.0
2017-Nov-27 08:30N 29°47' W 095°05'0 0.0
2017-Nov-27 07:36N 29°47' W 095°05'0 0.0
2017-Nov-27 07:28N 29°47' W 095°05'0 0.0
2017-Nov-27 04:16N 29°47' W 095°05'0 0.0
2017-Nov-27 03:50N 29°47' W 095°05'0 0.0
2017-Nov-27 03:30N 29°47' W 095°05'0 0.0
2017-Nov-27 02:45N 29°47' W 095°05'0 0.0
2017-Nov-27 02:27N 29°47' W 095°05'0 0.0
2017-Nov-27 01:30N 29°47' W 095°05'1 0.6
2017-Nov-27 00:37N 29°47' W 095°05'2 1.4
2017-Nov-26 23:24N 29°45' W 095°06'3 6.5
2017-Nov-26 23:00N 29°44' W 095°08'3 6.6
2017-Nov-26 22:30N 29°44' W 095°12'0 0.8
2017-Nov-26 21:57N 29°44' W 095°12'0 0.0
2017-Nov-26 21:25N 29°44' W 095°12'0 0.0
2017-Nov-26 21:00N 29°44' W 095°12'0 0.0
2017-Nov-26 20:29N 29°44' W 095°12'0 0.0
2017-Nov-26 19:51N 29°44' W 095°12'0 0.0
2017-Nov-26 19:28N 29°44' W 095°12'0 0.2
2017-Nov-26 19:00N 29°44' W 095°12'0 0.0
2017-Nov-26 18:03N 29°44' W 095°12'0 0.0
2017-Nov-26 17:32N 29°44' W 095°12'0 0.0
2017-Nov-26 17:02N 29°44' W 095°12'0 0.0
2017-Nov-26 16:44N 29°44' W 095°12'0 0.0
2017-Nov-26 16:30N 29°44' W 095°12'0 0.0
2017-Nov-26 15:59N 29°44' W 095°12'0 0.0
2017-Nov-26 15:24N 29°44' W 095°12'0 0.0
2017-Nov-26 15:00N 29°44' W 095°12'0 0.0
2017-Nov-26 14:30N 29°44' W 095°12'1 0.2
2017-Nov-26 06:51N 29°45' W 095°11'2 6.3
2017-Nov-26 06:30N 29°44' W 095°09'2 5.0
2017-Nov-26 06:00N 29°45' W 095°06'3 0.3
2017-Nov-25 21:43N 29°47' W 095°05'0 0.0
2017-Nov-25 21:24N 29°47' W 095°05'0 0.0
2017-Nov-25 20:58N 29°47' W 095°05'0 0.0
2017-Nov-25 14:25N 29°47' W 095°05'0 0.0
2017-Nov-25 05:35N 29°47' W 095°05'0 0.1
2017-Nov-25 05:08N 29°47' W 095°05'0 0.0
2017-Nov-25 04:11N 29°47' W 095°05'0 0.0
2017-Nov-25 01:27N 29°47' W 095°05'0 0.0
2017-Nov-24 14:40N 29°47' W 095°05'0 0.0
2017-Nov-24 10:47N 29°47' W 095°05'  
Track history (hours):
 
Tides and Currents Weather Stations Pressure Air Temp Water Temp Dewpoint Dewpoint Depression Visibility Wind Speed Wind Dir Waves Ship Positions

Squeak Carpenter

Owner: Blessey Enterprises, Inc., HARAHAN, LA. More information available from US FCC via Universal Licensing System and Coast Guard Vessel Documentation Center.

Last reported at 2017-Dec-04 10:30 UTC. Time now 2017-Dec-13 05:27 UTC.
Position N 29°45' W 095°06'.
Warning: this ship's position is 8 days out of date.

Length 15 m.

Type: Towing. MMSI: 366793340.

Date/timePositionNaut miles runAvg speedWind from/ knotsBaromVisibWave heightAir tempDewpointWater temp
2017-Dec-04 10:30N 29°45' W 095°06'1 0.8
2017-Dec-04 09:46N 29°46' W 095°06'0 0.1
2017-Dec-04 09:29N 29°46' W 095°06'2 0.5
2017-Dec-04 04:52N 29°47' W 095°05'1 1.5
2017-Dec-04 04:29N 29°47' W 095°04'2 0.6
2017-Dec-04 01:53N 29°46' W 095°06'1 2.3
2017-Dec-04 01:28N 29°45' W 095°06'1 0.9
2017-Dec-04 00:49N 29°45' W 095°06'0 0.0
2017-Dec-04 00:14N 29°45' W 095°06'0 0.0
2017-Dec-03 23:35N 29°45' W 095°06'0 0.0
2017-Dec-03 19:25N 29°45' W 095°06'0 0.0
2017-Dec-03 17:52N 29°45' W 095°06'0 0.0
2017-Dec-03 15:56N 29°45' W 095°06'0 0.0
2017-Dec-03 06:34N 29°45' W 095°06'0 0.0
2017-Dec-03 06:30N 29°45' W 095°06'0 0.0
2017-Dec-03 05:56N 29°45' W 095°06'0 0.0
2017-Dec-03 05:30N 29°45' W 095°06'0 0.0
2017-Dec-03 04:59N 29°45' W 095°06'0 0.0
2017-Dec-03 04:30N 29°45' W 095°06'0 0.0
2017-Dec-03 04:00N 29°45' W 095°06'0 0.0
2017-Dec-03 03:23N 29°45' W 095°06'1 0.2
2017-Dec-02 23:52N 29°45' W 095°06'2 4.8
2017-Dec-02 23:30N 29°45' W 095°04'3 5.6
2017-Dec-02 23:00N 29°43' W 095°01'3 5.7
2017-Dec-02 22:31N 29°41' W 094°59'3 6.8
2017-Dec-02 22:01N 29°38' W 094°58'3 6.8
2017-Dec-02 21:31N 29°35' W 094°56'3 6.9
2017-Dec-02 21:01N 29°32' W 094°54'45 1.6
2017-Dec-01 17:19N 28°55' W 095°22'1 0.1
2017-Dec-01 01:57N 28°54' W 095°23'0 0.0
2017-Dec-01 01:28N 28°54' W 095°23'0 0.0
2017-Dec-01 00:17N 28°54' W 095°23'0 0.0
2017-Nov-30 23:59N 28°54' W 095°23'  
2017-Nov-28 03:59N 29°30' W 094°52'3 6.2
2017-Nov-28 03:29N 29°32' W 094°54'3 6.4
2017-Nov-28 03:00N 29°35' W 094°56'3 6.6
2017-Nov-28 02:30N 29°38' W 094°58'3 5.7
2017-Nov-28 02:00N 29°40' W 094°59'4 6.2
2017-Nov-28 01:22N 29°44' W 095°01'5 0.4
2017-Nov-27 13:57N 29°47' W 095°05'0 0.0
2017-Nov-27 13:27N 29°47' W 095°05'0 0.0
2017-Nov-27 12:04N 29°47' W 095°05'0 0.4
2017-Nov-27 11:56N 29°47' W 095°05'0 0.0
2017-Nov-27 11:19N 29°47' W 095°05'0 0.0
2017-Nov-27 10:20N 29°47' W 095°05'0 0.0
2017-Nov-27 10:00N 29°47' W 095°05'0 0.0
2017-Nov-27 08:47N 29°47' W 095°05'0 0.0
2017-Nov-27 08:30N 29°47' W 095°05'0 0.0
2017-Nov-27 07:36N 29°47' W 095°05'0 0.0
2017-Nov-27 07:28N 29°47' W 095°05'0 0.0
2017-Nov-27 04:16N 29°47' W 095°05'0 0.0
2017-Nov-27 03:50N 29°47' W 095°05'0 0.0
2017-Nov-27 03:30N 29°47' W 095°05'0 0.0
2017-Nov-27 02:45N 29°47' W 095°05'0 0.0
2017-Nov-27 02:27N 29°47' W 095°05'0 0.0
2017-Nov-27 01:30N 29°47' W 095°05'1 0.6
2017-Nov-27 00:37N 29°47' W 095°05'2 1.4
2017-Nov-26 23:24N 29°45' W 095°06'3 6.5
2017-Nov-26 23:00N 29°44' W 095°08'3 6.6
2017-Nov-26 22:30N 29°44' W 095°12'0 0.8
2017-Nov-26 21:57N 29°44' W 095°12'0 0.0
2017-Nov-26 21:25N 29°44' W 095°12'0 0.0
2017-Nov-26 21:00N 29°44' W 095°12'0 0.0
2017-Nov-26 20:29N 29°44' W 095°12'0 0.0
2017-Nov-26 19:51N 29°44' W 095°12'0 0.0
2017-Nov-26 19:28N 29°44' W 095°12'0 0.2
2017-Nov-26 19:00N 29°44' W 095°12'0 0.0
2017-Nov-26 18:03N 29°44' W 095°12'0 0.0
2017-Nov-26 17:32N 29°44' W 095°12'0 0.0
2017-Nov-26 17:02N 29°44' W 095°12'0 0.0
2017-Nov-26 16:44N 29°44' W 095°12'0 0.0
2017-Nov-26 16:30N 29°44' W 095°12'0 0.0
2017-Nov-26 15:59N 29°44' W 095°12'0 0.0
2017-Nov-26 15:24N 29°44' W 095°12'0 0.0
2017-Nov-26 15:00N 29°44' W 095°12'0 0.0
2017-Nov-26 14:30N 29°44' W 095°12'1 0.2
2017-Nov-26 06:51N 29°45' W 095°11'2 6.3
2017-Nov-26 06:30N 29°44' W 095°09'2 5.0
2017-Nov-26 06:00N 29°45' W 095°06'3 0.3
2017-Nov-25 21:43N 29°47' W 095°05'0 0.0
2017-Nov-25 21:24N 29°47' W 095°05'0 0.0
2017-Nov-25 20:58N 29°47' W 095°05'0 0.0
2017-Nov-25 14:25N 29°47' W 095°05'0 0.0
2017-Nov-25 05:35N 29°47' W 095°05'0 0.1
2017-Nov-25 05:08N 29°47' W 095°05'0 0.0
2017-Nov-25 04:11N 29°47' W 095°05'0 0.0
2017-Nov-25 01:27N 29°47' W 095°05'0 0.0
2017-Nov-24 14:40N 29°47' W 095°05'0 0.0
2017-Nov-24 10:47N 29°47' W 095°05'  

Dump ship's entire track history